Time;durP1;ratioP1;P1;durP2;ratioP2;P2;SDS_P1;SDS_P2;PMS_P1;PMS_P2;Temp;Humidity;BMP_temperature;BMP_pressure;BME280_temperature;BME280_humidity;BME280_pressure;Samples;Min_cycle;Max_cycle;Signal;HPM_P1;HPM_P2
2023/03/18 00:02:40;;;;;;;16.00;7.90;;;;;;;4.90;49.45;100395.59;105090;1256;69130;-53
2023/03/18 00:05:43;;;;;;;;;;;;;;;;;;;;;
2023/03/18 00:08:56;;;;;;;15.80;7.50;;;;;;;4.86;49.55;100396.00;105017;1259;83419;-50
2023/03/18 00:12:07;;;;;;;15.00;7.70;;;;;;;4.83;49.71;100401.05;105003;1260;72800;-51
2023/03/18 00:15:08;;;;;;;16.40;8.90;;;;;;;4.81;49.71;100401.60;105025;1255;69165;-54
2023/03/18 00:21:37;;;;;;;62.90;21.10;;;;;;;4.73;49.80;100404.14;104954;1260;74231;-55
2023/03/18 00:25:06;;;;;;;;;;;;;;;;;;;;;
2023/03/18 00:28:35;;;;;;;27.90;10.70;;;;;;;4.67;50.02;100405.41;104927;1259;75362;-53
2023/03/18 00:31:37;;;;;;;28.50;11.40;;;;;;;4.64;50.13;100401.14;104876;1257;69201;-53
2023/03/18 00:35:18;;;;;;;20.10;8.80;;;;;;;4.61;50.10;100400.13;104950;1264;69083;-52
2023/03/18 00:38:41;;;;;;;21.20;9.40;;;;;;;4.59;50.19;100402.23;104820;1258;73065;-54
2023/03/18 00:42:09;;;;;;;16.60;8.60;;;;;;;4.56;50.29;100396.57;104903;1259;83380;-52
2023/03/18 00:45:28;;;;;;;20.50;9.60;;;;;;;4.54;50.22;100393.12;104918;1260;72831;-53
2023/03/18 00:49:00;;;;;;;;;;;;;;;;;;;;;
2023/03/18 00:52:18;;;;;;;15.60;8.40;;;;;;;4.48;50.29;100385.75;105141;1254;70478;-55
2023/03/18 00:55:38;;;;;;;39.60;20.20;;;;;;;4.46;50.42;100385.44;104943;1258;74225;-53
2023/03/18 00:59:12;;;;;;;42.50;14.30;;;;;;;4.44;50.57;100388.58;104955;1265;82419;-56
2023/03/18 01:02:09;;;;;;;25.50;9.50;;;;;;;4.40;50.55;100385.86;104944;1266;72438;-55
2023/03/18 01:05:43;;;;;;;20.00;9.20;;;;;;;4.37;50.55;100384.84;105080;1255;69275;-55
2023/03/18 01:08:56;;;;;;;17.10;8.30;;;;;;;4.35;50.78;100380.55;104708;1260;69259;-56
2023/03/18 01:12:21;;;;;;;18.40;8.50;;;;;;;4.34;50.84;100375.38;104900;1254;74128;-56
2023/03/18 01:18:58;;;;;;;26.80;13.50;;;;;;;4.34;50.85;100362.56;105592;1257;73732;-56
2023/03/18 01:22:07;;;;;;;47.90;20.70;;;;;;;4.35;50.86;100362.39;104861;1254;69409;-56
2023/03/18 01:25:33;;;;;;;;;;;;;;;;;;;;;
2023/03/18 01:28:50;;;;;;;20.70;8.70;;;;;;;4.35;51.14;100361.86;105123;1254;73919;-56
2023/03/18 01:32:15;;;;;;;20.50;8.30;;;;;;;4.35;51.09;100363.25;104979;1254;82613;-55
2023/03/18 01:35:43;;;;;;;17.50;7.10;;;;;;;4.36;51.14;100363.77;105008;1254;73820;-56
2023/03/18 01:39:00;;;;;;;12.00;6.70;;;;;;;4.37;51.32;100358.91;104830;1259;69202;-56
2023/03/18 01:42:18;;;;;;;15.20;7.70;;;;;;;4.38;51.22;100359.23;105066;1256;69082;-53
2023/03/18 01:45:47;;;;;;;;;;;;;;;;;;;;;
2023/03/18 01:49:28;;;;;;;41.10;17.50;;;;;;;4.42;51.21;100365.25;104318;1254;84645;-56
2023/03/18 01:52:45;;;;;;;55.20;19.80;;;;;;;4.42;51.18;100367.48;105362;1254;74048;-56
2023/03/18 01:56:23;;;;;;;32.90;10.70;;;;;;;4.44;51.20;100368.67;104420;1265;69327;-55
2023/03/18 01:59:55;;;;;;;30.10;9.70;;;;;;;4.45;51.30;100367.96;104303;1261;69100;-54
2023/03/18 02:03:15;;;;;;;19.30;8.20;;;;;;;4.47;51.42;100367.95;104296;1261;74727;-56
2023/03/18 02:06:37;;;;;;;;;;;;;;;;;;;;;
2023/03/18 02:09:47;;;;;;;13.70;6.00;;;;;;;4.51;51.21;100368.77;104237;1260;72117;-56
2023/03/18 02:13:15;;;;;;;12.10;6.00;;;;;;;4.52;51.27;100366.84;104281;1266;69350;-53
2023/03/18 02:16:48;;;;;;;;;;;;;;;;;;;;;
2023/03/18 02:20:19;;;;;;;;;;;;;;;;;;;;;
2023/03/18 02:23:51;;;;;;;18.30;8.20;;;;;;;4.51;51.44;100355.27;103979;1272;82459;-55
2023/03/18 02:27:51;;;;;;;12.50;5.50;;;;;;;4.48;51.57;100357.55;104104;1270;72268;-56
2023/03/18 02:31:00;;;;;;;8.60;4.80;;;;;;;4.35;51.89;100347.68;103603;1271;69249;-55
2023/03/18 02:34:50;;;;;;;9.70;4.70;;;;;;;4.25;52.47;100350.23;104099;1271;69155;-57
2023/03/18 02:38:12;;;;;;;;;;;;;;;;;;;;;
2023/03/18 02:41:53;;;;;;;;;;;;;;;;;;;;;
2023/03/18 02:45:14;;;;;;;9.90;4.60;;;;;;;3.99;52.74;100349.82;104055;1271;73819;-56
2023/03/18 02:48:59;;;;;;;10.20;4.40;;;;;;;3.95;53.22;100352.46;104296;1271;69155;-56
2023/03/18 02:52:21;;;;;;;10.80;4.90;;;;;;;3.87;53.64;100349.95;104046;1272;69458;-55
2023/03/18 02:56:02;;;;;;;;;;;;;;;;;;;;;
2023/03/18 02:59:35;;;;;;;10.30;5.40;;;;;;;3.84;53.61;100358.45;104150;1270;82431;-55
2023/03/18 03:02:52;;;;;;;;;;;;;;;;;;;;;
2023/03/18 03:06:29;;;;;;;7.70;4.70;;;;;;;3.93;53.74;100365.80;105025;1253;69153;-56
2023/03/18 03:10:03;;;;;;;;;;;;;;;;;;;;;
2023/03/18 03:13:31;;;;;;;10.90;5.40;;;;;;;4.04;53.44;100360.83;105188;1254;74157;-55
2023/03/18 03:17:20;;;;;;;22.60;11.20;;;;;;;4.13;53.45;100357.97;104736;1257;83583;-52
2023/03/18 03:20:07;;;;;;;;;;;;;;;;;;;;;
2023/03/18 03:23:32;;;;;;;23.60;9.90;;;;;;;4.23;53.35;100360.80;104910;1254;69181;-55
2023/03/18 03:27:04;;;;;;;;;;;;;;;;;;;;;
2023/03/18 03:30:36;;;;;;;;;;;;;;;;;;;;;
2023/03/18 03:34:03;;;;;;;15.70;5.70;;;;;;;4.36;53.14;100364.81;104854;1254;83821;-56
2023/03/18 03:37:34;;;;;;;;;;;;;;;;;;;;;
2023/03/18 03:40:59;;;;;;;;;;;;;;;;;;;;;
2023/03/18 03:44:18;;;;;;;12.90;6.30;;;;;;;4.42;53.18;100364.55;105301;1254;74127;-55
2023/03/18 03:48:01;;;;;;;;;;;;;;;;;;;;;
2023/03/18 03:51:12;;;;;;;11.60;5.70;;;;;;;4.41;53.08;100367.66;105225;1259;73733;-52
2023/03/18 03:54:43;;;;;;;;;;;;;;;;;;;;;
2023/03/18 03:58:00;;;;;;;10.80;5.30;;;;;;;4.43;52.82;100366.61;104799;1257;69198;-58
2023/03/18 04:01:27;;;;;;;10.30;4.80;;;;;;;4.43;52.96;100365.73;104826;1259;74542;-55
2023/03/18 04:04:55;;;;;;;;;;;;;;;;;;;;;
2023/03/18 04:08:38;;;;;;;10.20;4.70;;;;;;;4.42;53.00;100368.02;104885;1257;74352;-57
2023/03/18 04:11:45;;;;;;;;;;;;;;;;;;;;;
2023/03/18 04:15:22;;;;;;;10.90;5.30;;;;;;;4.42;52.98;100367.33;104793;1254;69545;-55
2023/03/18 04:18:47;;;;;;;;;;;;;;;;;;;;;
2023/03/18 04:22:17;;;;;;;10.30;5.00;;;;;;;4.41;53.02;100373.73;104768;1254;83693;-56
2023/03/18 04:25:26;;;;;;;13.20;4.90;;;;;;;4.41;53.02;100374.95;104663;1254;73943;-57
2023/03/18 04:28:39;;;;;;;;;;;;;;;;;;;;;
2023/03/18 04:31:55;;;;;;;10.30;5.50;;;;;;;4.40;53.31;100382.20;104922;1254;69167;-56
2023/03/18 04:35:18;;;;;;;10.90;5.40;;;;;;;4.38;53.33;100382.59;104908;1259;73708;-56
2023/03/18 04:38:32;;;;;;;9.40;4.90;;;;;;;4.37;53.35;100387.45;104907;1254;83301;-56
2023/03/18 04:42:03;;;;;;;9.20;5.20;;;;;;;4.35;53.53;100385.39;104686;1255;76520;-57
2023/03/18 04:45:34;;;;;;;19.80;10.80;;;;;;;4.33;53.51;100387.83;104898;1254;69222;-55
2023/03/18 04:49:07;;;;;;;;;;;;;;;;;;;;;
2023/03/18 04:52:26;;;;;;;;;;;;;;;;;;;;;
2023/03/18 04:56:06;;;;;;;37.80;13.60;;;;;;;4.27;53.63;100384.96;104744;1261;83296;-56
2023/03/18 04:59:24;;;;;;;24.80;9.80;;;;;;;4.24;53.83;100386.55;104956;1257;73663;-57
2023/03/18 05:02:43;;;;;;;20.00;7.90;;;;;;;4.23;53.73;100380.52;104841;1254;69192;-59
2023/03/18 05:06:05;;;;;;;;;;;;;;;;;;;;;
2023/03/18 05:09:36;;;;;;;26.00;8.40;;;;;;;4.17;54.00;100377.47;104898;1254;74492;-55
2023/03/18 05:13:04;;;;;;;28.80;9.70;;;;;;;4.15;53.99;100376.10;104857;1254;83812;-53
2023/03/18 05:16:47;;;;;;;127.20;40.40;;;;;;;4.15;54.09;100383.20;104850;1254;73897;-54
2023/03/18 05:20:03;;;;;;;40.90;14.00;;;;;;;4.14;54.08;100385.61;104824;1254;69157;-53
2023/03/18 05:23:31;;;;;;;30.70;11.60;;;;;;;4.14;54.11;100387.19;104796;1258;69463;-52
2023/03/18 05:26:45;;;;;;;21.10;8.50;;;;;;;4.15;54.14;100393.73;107400;1254;74139;-52
2023/03/18 05:29:50;;;;;;;15.90;7.30;;;;;;;4.16;54.14;100395.46;104909;1257;83697;-51
2023/03/18 05:33:41;;;;;;;14.70;6.70;;;;;;;4.20;54.21;100394.03;104825;1258;73925;-53
2023/03/18 05:37:16;;;;;;;;;;;;;;;;;;;;;
2023/03/18 05:40:44;;;;;;;;;;;;;;;;;;;;;
2023/03/18 05:44:07;;;;;;;12.30;6.30;;;;;;;4.24;54.37;100393.64;104910;1254;74326;-50
2023/03/18 05:47:39;;;;;;;9.50;5.20;;;;;;;4.26;54.63;100390.51;105221;1257;83392;-53
2023/03/18 05:51:09;;;;;;;9.10;5.00;;;;;;;4.27;54.84;100390.17;104913;1254;72741;-50
2023/03/18 05:54:30;;;;;;;10.70;5.30;;;;;;;4.30;54.73;100390.31;104883;1259;69624;-51
2023/03/18 05:58:11;;;;;;;7.70;4.70;;;;;;;4.35;54.84;100393.86;104990;1253;70717;-52
2023/03/18 06:01:41;;;;;;;10.60;5.30;;;;;;;4.43;54.94;100402.61;104825;1253;73962;-53
2023/03/18 06:04:57;;;;;;;7.30;4.50;;;;;;;4.54;54.85;100403.50;104818;1259;83379;-52
2023/03/18 06:08:14;;;;;;;26.80;15.80;;;;;;;4.68;54.71;100403.84;104965;1257;73461;-53
2023/03/18 06:11:17;;;;;;;;;;;;;;;;;;;;;
2023/03/18 06:14:32;;;;;;;;;;;;;;;;;;;;;
2023/03/18 06:17:40;;;;;;;24.80;9.60;;;;;;;5.15;54.35;100407.02;104759;1253;75318;-54
2023/03/18 06:21:07;;;;;;;23.30;13.60;;;;;;;5.31;54.16;100408.00;104881;1254;83451;-55
2023/03/18 06:24:19;;;;;;;20.40;8.90;;;;;;;5.43;53.91;100405.71;104971;1254;73888;-55
2023/03/18 06:27:20;;;;;;;15.20;6.70;;;;;;;5.55;53.85;100407.08;105061;1259;69311;-58
2023/03/18 06:30:42;;;;;;;14.00;8.00;;;;;;;5.67;53.78;100406.20;105434;1256;69235;-55
2023/03/18 06:33:52;;;;;;;;;;;;;;;;;;;;;
2023/03/18 06:36:45;;;;;;;11.30;5.40;;;;;;;5.82;53.68;100405.94;105298;1256;83520;-54
2023/03/18 06:39:42;;;;;;;7.90;4.30;;;;;;;5.89;53.50;100400.79;105615;1254;73701;-56
2023/03/18 06:42:20;;;;;;;10.60;5.20;;;;;;;5.94;53.26;100408.00;105463;1253;69192;-56
2023/03/18 06:45:15;;;;;;;7.70;4.60;;;;;;;6.00;53.31;100407.38;105612;1254;69081;-57
2023/03/18 06:48:23;;;;;;;10.10;5.00;;;;;;;6.06;53.02;100409.54;105275;1257;73003;-55
2023/03/18 06:51:25;;;;;;;9.40;4.20;;;;;;;6.11;53.11;100404.76;105352;1259;83479;-54
2023/03/18 06:54:17;;;;;;;7.30;4.40;;;;;;;6.17;52.90;100404.30;105489;1256;73954;-54
2023/03/18 06:57:10;;;;;;;5.90;3.80;;;;;;;6.22;52.88;100404.71;105060;1259;69214;-51
2023/03/18 06:59:57;;;;;;;6.50;3.90;;;;;;;6.30;52.70;100409.42;105073;1256;69178;-56
2023/03/18 07:02:49;;;;;;;9.40;4.50;;;;;;;6.36;52.66;100411.57;105457;1253;74098;-62
2023/03/18 07:05:35;;;;;;;7.50;4.40;;;;;;;6.42;52.59;100412.69;105501;1253;82601;-54
2023/03/18 07:08:27;;;;;;;7.80;4.40;;;;;;;6.47;52.37;100415.35;105634;1256;73656;-53
2023/03/18 07:11:32;;;;;;;8.60;4.50;;;;;;;6.54;52.28;100416.94;105781;1256;69105;-56
2023/03/18 07:14:28;;;;;;;7.80;4.30;;;;;;;6.61;52.16;100424.80;105532;1256;69206;-52
2023/03/18 07:17:08;;;;;;;8.20;4.50;;;;;;;6.68;52.00;100434.71;105623;1253;74363;-54
2023/03/18 07:19:58;;;;;;;9.00;4.70;;;;;;;6.76;51.80;100425.52;105463;1253;83543;-53
2023/03/18 07:22:39;;;;;;;12.40;5.10;;;;;;;6.86;51.46;100431.73;105386;1254;74025;-52
2023/03/18 07:25:28;;;;;;;6.60;4.30;;;;;;;6.94;51.53;100431.55;105363;1256;69289;-54
2023/03/18 07:28:22;;;;;;;;;;;;;;;;;;;;;
2023/03/18 07:31:08;;;;;;;6.80;3.90;;;;;;;7.09;51.09;100440.09;105644;1254;73425;-55
2023/03/18 07:33:52;;;;;;;7.60;4.00;;;;;;;7.16;50.78;100441.16;105569;1256;82987;-53
2023/03/18 07:36:32;;;;;;;7.40;3.90;;;;;;;7.23;50.55;100446.73;105311;1253;73885;-53
2023/03/18 07:39:12;;;;;;;9.20;3.90;;;;;;;7.31;50.44;100448.30;105400;1258;69202;-54
2023/03/18 07:41:53;;;;;;;9.50;4.90;;;;;;;7.37;50.18;100454.06;105574;1257;69190;-55
2023/03/18 07:44:35;;;;;;;8.20;4.80;;;;;;;7.44;50.05;100456.52;105639;1253;74181;-54
2023/03/18 07:47:14;;;;;;;8.00;3.60;;;;;;;7.53;50.02;100457.17;105490;1253;82647;-52
2023/03/18 07:49:57;;;;;;;7.40;4.10;;;;;;;7.59;49.66;100453.20;105459;1253;73743;-53
2023/03/18 07:52:34;;;;;;;9.60;4.00;;;;;;;7.67;49.85;100455.27;105430;1253;69219;-54
2023/03/18 07:55:18;;;;;;;7.50;3.60;;;;;;;7.75;49.64;100452.46;105430;1256;69202;-50
2023/03/18 07:57:52;;;;;;;8.70;4.40;;;;;;;7.82;49.65;100449.48;105400;1254;73094;-50
2023/03/18 08:00:27;;;;;;;7.00;3.50;;;;;;;7.90;49.50;100453.50;105665;1257;83382;-54
2023/03/18 08:03:03;;;;;;;7.10;4.30;;;;;;;7.98;49.37;100453.80;105471;1255;73736;-51
2023/03/18 08:05:35;;;;;;;5.60;3.90;;;;;;;8.06;49.13;100455.00;105542;1254;70034;-57
2023/03/18 08:08:12;;;;;;;7.70;4.70;;;;;;;8.14;49.23;100455.83;105510;1257;69898;-49
2023/03/18 08:10:44;;;;;;;7.30;4.70;;;;;;;8.23;48.76;100455.77;105490;1254;74707;-52
2023/03/18 08:13:23;;;;;;;6.90;4.20;;;;;;;8.31;48.76;100460.07;105530;1253;83489;-50
2023/03/18 08:15:57;;;;;;;8.20;4.20;;;;;;;8.41;48.79;100458.80;105633;1253;73645;-53
2023/03/18 08:18:29;;;;;;;7.90;4.20;;;;;;;8.51;48.61;100462.89;105328;1257;70015;-51
2023/03/18 08:21:03;;;;;;;11.00;4.30;;;;;;;8.60;48.39;100465.95;105268;1254;70070;-50
2023/03/18 08:23:49;;;;;;;8.00;4.10;;;;;;;8.70;48.11;100467.05;105411;1254;73960;-51
2023/03/18 08:26:23;;;;;;;8.20;4.80;;;;;;;8.79;48.33;100464.55;105291;1256;83340;-59
2023/03/18 08:28:58;;;;;;;8.10;4.70;;;;;;;8.88;47.94;100466.91;105342;1254;74298;-55
2023/03/18 08:31:30;;;;;;;8.00;4.80;;;;;;;9.00;47.84;100471.95;105309;1254;69214;-55
2023/03/18 08:34:04;;;;;;;11.20;4.50;;;;;;;9.12;47.51;100474.73;105274;1258;69896;-53
2023/03/18 08:36:36;;;;;;;9.20;4.80;;;;;;;9.24;47.32;100472.09;105475;1257;73193;-51
2023/03/18 08:39:07;;;;;;;8.50;4.80;;;;;;;9.37;47.24;100471.85;105342;1254;82496;-54
2023/03/18 08:41:41;;;;;;;7.60;4.40;;;;;;;9.55;47.31;100470.80;105323;1254;73657;-52
2023/03/18 08:44:15;;;;;;;7.00;4.00;;;;;;;9.70;46.85;100466.82;105249;1254;69326;-54
2023/03/18 08:46:46;;;;;;;6.70;4.20;;;;;;;9.83;46.71;100464.30;105128;1254;69187;-55
2023/03/18 08:49:14;;;;;;;7.30;4.30;;;;;;;10.00;46.76;100464.80;105109;1254;73093;-56
2023/03/18 08:51:43;;;;;;;11.00;4.40;;;;;;;10.13;46.53;100458.07;105050;1257;83446;-54
2023/03/18 08:54:14;;;;;;;10.20;5.20;;;;;;;10.28;46.60;100457.05;105138;1257;74047;-50
2023/03/18 08:56:46;;;;;;;32.90;15.20;;;;;;;10.45;46.46;100455.94;105301;1257;69091;-58
2023/03/18 08:59:14;;;;;;;117.70;42.00;;;;;;;10.57;46.28;100460.41;105556;1257;69230;-57
2023/03/18 09:01:47;;;;;;;36.30;12.70;;;;;;;10.64;46.04;100464.86;105531;1254;73769;-54
2023/03/18 09:04:23;;;;;;;21.70;8.60;;;;;;;10.69;45.45;100463.44;105526;1257;83847;-53
2023/03/18 09:06:54;;;;;;;41.40;15.00;;;;;;;10.71;45.10;100463.38;105525;1257;73893;-54
2023/03/18 09:09:25;;;;;;;33.60;12.90;;;;;;;10.78;45.03;100471.70;105419;1257;69080;-48
2023/03/18 09:12:13;;;;;;;37.80;14.30;;;;;;;10.88;45.22;100472.37;105495;1254;69196;-50
2023/03/18 09:14:42;;;;;;;16.40;7.30;;;;;;;11.05;45.00;100476.27;105512;1255;74199;-50
2023/03/18 09:17:14;;;;;;;24.40;9.80;;;;;;;11.20;44.84;100472.02;105652;1256;83826;-51
2023/03/18 09:19:43;;;;;;;31.30;12.10;;;;;;;11.40;44.73;100471.96;105488;1257;73887;-50
2023/03/18 09:22:12;;;;;;;22.00;9.70;;;;;;;11.55;44.38;100466.64;105457;1253;69093;-54
2023/03/18 09:24:43;;;;;;;22.20;9.60;;;;;;;11.70;44.18;100462.02;105572;1257;69826;-53
2023/03/18 09:27:12;;;;;;;34.20;11.90;;;;;;;11.86;44.05;100453.16;105687;1254;74113;-53
2023/03/18 09:29:48;;;;;;;21.10;9.30;;;;;;;12.08;44.04;100457.51;105544;1256;83436;-60
2023/03/18 09:32:22;;;;;;;29.10;11.50;;;;;;;12.24;43.50;100462.23;105420;1253;72791;-57
2023/03/18 09:34:56;;;;;;;13.90;6.30;;;;;;;12.35;43.17;100464.21;105415;1253;69112;-56
2023/03/18 09:37:28;;;;;;;13.60;6.40;;;;;;;12.43;43.12;100458.63;105672;1254;69225;-59
2023/03/18 09:39:59;;;;;;;8.20;4.80;;;;;;;12.49;42.96;100463.09;105506;1256;73153;-57
2023/03/18 09:43:01;;;;;;;11.80;5.90;;;;;;;12.61;42.79;100464.30;105433;1253;82261;-55
2023/03/18 09:46:05;;;;;;;22.80;9.30;;;;;;;12.70;42.52;100465.65;105435;1254;73834;-61
2023/03/18 09:48:49;;;;;;;244.20;88.10;;;;;;;12.82;42.02;100468.45;105461;1257;69297;-60
2023/03/18 09:51:28;;;;;;;78.70;26.00;;;;;;;12.90;41.47;100466.52;105460;1257;69221;-59
2023/03/18 09:54:19;;;;;;;41.00;13.00;;;;;;;13.01;41.59;100464.80;105530;1256;73481;-59
2023/03/18 09:56:49;;;;;;;20.40;8.20;;;;;;;13.19;41.63;100456.94;105490;1254;83402;-60
2023/03/18 09:59:30;;;;;;;7.10;5.30;;;;;;;13.42;41.70;100459.40;105404;1254;73806;-59
2023/03/18 10:02:01;;;;;;;7.40;5.30;;;;;;;13.67;41.59;100458.17;105573;1256;69138;-58
2023/03/18 10:04:41;;;;;;;7.50;5.20;;;;;;;13.95;41.44;100454.15;105555;1256;69199;-58
2023/03/18 10:07:16;;;;;;;15.30;8.40;;;;;;;14.29;41.46;100453.15;105557;1256;73436;-58
2023/03/18 10:09:58;;;;;;;25.30;10.30;;;;;;;14.49;40.77;100450.48;105443;1257;85264;-60
2023/03/18 10:12:34;;;;;;;7.90;4.40;;;;;;;14.67;40.53;100456.10;105436;1259;73246;-61
2023/03/18 10:15:23;;;;;;;12.40;6.60;;;;;;;14.79;40.09;100457.56;105419;1257;69166;-60
2023/03/18 10:18:15;;;;;;;7.80;5.20;;;;;;;15.04;39.92;100457.81;105470;1259;69110;-58
2023/03/18 10:20:56;;;;;;;10.30;5.10;;;;;;;15.29;39.43;100454.84;105454;1255;74090;-60
2023/03/18 10:23:35;;;;;;;9.10;5.60;;;;;;;15.47;39.34;100457.33;105427;1259;82598;-60
2023/03/18 10:26:07;;;;;;;18.50;8.70;;;;;;;15.75;39.31;100455.05;105370;1257;71938;-58
2023/03/18 10:28:40;;;;;;;9.40;6.40;;;;;;;15.98;39.01;100447.91;105342;1254;69224;-57
2023/03/18 10:31:47;;;;;;;12.90;7.10;;;;;;;16.08;38.70;100449.11;105495;1256;69221;-55
2023/03/18 10:34:22;;;;;;;10.60;7.00;;;;;;;16.33;38.74;100446.52;105295;1257;73047;-61
2023/03/18 10:37:12;;;;;;;18.40;9.70;;;;;;;16.57;38.65;100443.15;105241;1259;83535;-56
2023/03/18 10:39:41;;;;;;;11.30;6.70;;;;;;;16.79;38.49;100445.73;105370;1258;72731;-58
2023/03/18 10:42:30;;;;;;;15.60;7.70;;;;;;;16.97;38.09;100445.64;105334;1259;69221;-54
2023/03/18 10:45:16;;;;;;;14.00;7.80;;;;;;;17.17;37.82;100441.03;105499;1253;69186;-57
2023/03/18 10:47:49;;;;;;;18.00;8.90;;;;;;;17.42;37.48;100445.78;105553;1254;74085;-60
2023/03/18 10:50:32;;;;;;;9.30;6.00;;;;;;;17.53;37.17;100440.32;105451;1255;83256;-58
2023/03/18 10:53:12;;;;;;;10.70;5.80;;;;;;;17.61;36.83;100437.45;105419;1253;72773;-58
2023/03/18 10:55:54;;;;;;;13.20;6.90;;;;;;;17.63;36.69;100436.64;105393;1253;69192;-58
2023/03/18 10:58:26;;;;;;;34.40;17.70;;;;;;;17.65;36.46;100434.19;105478;1254;69247;-58
2023/03/18 11:00:55;;;;;;;11.30;8.00;;;;;;;17.74;36.45;100435.04;105483;1253;74158;-59
2023/03/18 11:03:26;;;;;;;35.40;14.50;;;;;;;17.86;36.44;100430.89;105430;1253;83190;-59
2023/03/18 11:05:57;;;;;;;22.10;9.50;;;;;;;18.03;36.26;100432.07;105538;1256;74562;-56
2023/03/18 11:08:33;;;;;;;16.70;9.10;;;;;;;17.97;35.97;100432.63;105289;1253;69136;-57
2023/03/18 11:11:14;;;;;;;11.20;8.10;;;;;;;17.90;35.82;100428.20;105339;1258;69244;-56
2023/03/18 11:13:48;;;;;;;12.70;7.90;;;;;;;17.96;35.73;100426.88;105342;1255;74111;-57
2023/03/18 11:16:29;;;;;;;12.00;6.70;;;;;;;18.08;35.93;100422.86;105233;1253;83781;-54
2023/03/18 11:18:59;;;;;;;20.50;11.80;;;;;;;18.28;35.78;100420.65;105354;1257;73738;-57
2023/03/18 11:21:28;;;;;;;14.90;10.40;;;;;;;18.44;35.61;100417.40;105471;1254;69188;-59
2023/03/18 11:24:09;;;;;;;15.20;10.60;;;;;;;18.60;35.46;100415.39;105320;1259;69128;-57
2023/03/18 11:26:55;;;;;;;11.60;8.00;;;;;;;18.73;35.35;100409.67;105444;1257;73056;-60
2023/03/18 11:29:32;;;;;;;21.20;12.60;;;;;;;18.76;35.08;100412.75;105446;1253;83365;-56
2023/03/18 11:32:01;;;;;;;26.90;15.80;;;;;;;18.76;35.02;100414.27;105488;1259;72733;-58
2023/03/18 11:34:31;;;;;;;14.50;8.50;;;;;;;18.84;34.66;100411.11;105536;1254;69088;-55
2023/03/18 11:37:07;;;;;;;29.00;17.40;;;;;;;18.82;34.75;100410.55;105568;1252;69214;-59
2023/03/18 11:39:38;;;;;;;19.70;11.80;;;;;;;18.85;34.56;100412.60;105477;1256;72284;-58
2023/03/18 11:42:20;;;;;;;18.90;10.30;;;;;;;18.89;34.57;100413.53;105456;1257;83424;-59
2023/03/18 11:44:53;;;;;;;15.90;10.60;;;;;;;19.05;34.38;100410.30;105364;1257;73903;-56
2023/03/18 11:47:25;;;;;;;11.90;7.70;;;;;;;19.09;34.21;100410.19;105414;1253;69209;-55
2023/03/18 11:49:53;;;;;;;12.60;7.50;;;;;;;19.07;33.91;100410.69;105235;1257;69168;-55
2023/03/18 11:52:30;;;;;;;11.00;7.40;;;;;;;19.05;33.87;100411.33;105215;1254;74304;-56
2023/03/18 11:55:10;;;;;;;13.70;8.90;;;;;;;19.13;33.70;100411.48;108116;1253;83232;-57
2023/03/18 11:58:03;;;;;;;10.70;7.00;;;;;;;19.19;33.71;100409.08;105391;1254;72723;-55
2023/03/18 12:00:36;;;;;;;11.20;7.40;;;;;;;19.27;33.68;100407.61;105046;1253;69078;-58
2023/03/18 12:03:37;;;;;;;17.40;10.60;;;;;;;19.40;33.56;100405.60;105101;1256;69107;-57
2023/03/18 12:06:21;;;;;;;9.10;6.60;;;;;;;19.51;33.35;100407.11;104949;1258;74509;-57
2023/03/18 12:09:05;;;;;;;10.20;5.70;;;;;;;19.70;33.40;100403.55;105318;1256;83629;-62
2023/03/18 12:11:40;;;;;;;9.30;5.50;;;;;;;19.94;33.29;100401.20;105172;1253;73552;-61
2023/03/18 12:14:36;;;;;;;7.50;5.20;;;;;;;20.13;33.33;100405.97;105242;1254;69100;-60
2023/03/18 12:17:17;;;;;;;6.60;4.80;;;;;;;20.20;32.96;100404.58;105041;1253;69343;-59
2023/03/18 12:20:03;;;;;;;7.10;6.40;;;;;;;20.20;32.94;100408.66;105563;1254;74117;-59
2023/03/18 12:22:47;;;;;;;7.20;5.40;;;;;;;20.18;32.95;100409.83;105268;1255;83339;-60
2023/03/18 12:25:29;;;;;;;6.30;5.00;;;;;;;20.21;32.51;100411.05;105468;1257;72717;-61
2023/03/18 12:28:00;;;;;;;7.30;5.60;;;;;;;20.27;32.36;100410.56;105494;1258;69153;-59
2023/03/18 12:30:57;;;;;;;7.60;5.50;;;;;;;20.38;32.10;100413.09;105445;1253;69159;-62
2023/03/18 12:33:37;;;;;;;8.30;6.70;;;;;;;20.47;31.94;100410.61;105472;1254;74177;-59
2023/03/18 12:36:24;;;;;;;12.10;7.40;;;;;;;20.54;32.00;100409.95;105481;1253;82476;-61
2023/03/18 12:39:10;;;;;;;9.80;6.00;;;;;;;20.68;32.07;100412.70;105483;1257;72847;-64
2023/03/18 12:41:48;;;;;;;7.10;5.70;;;;;;;20.69;31.95;100411.08;105437;1253;69208;-60
2023/03/18 12:44:49;;;;;;;10.20;7.10;;;;;;;20.67;31.95;100408.05;105440;1253;69245;-64
2023/03/18 12:47:22;;;;;;;12.60;7.00;;;;;;;20.72;31.88;100415.04;105437;1254;73762;-60
2023/03/18 12:49:51;;;;;;;7.00;6.10;;;;;;;20.73;31.92;100416.92;105489;1253;83528;-62
2023/03/18 12:52:26;;;;;;;10.20;6.00;;;;;;;20.82;32.21;100414.80;105516;1258;72745;-62
2023/03/18 12:55:17;;;;;;;14.80;11.20;;;;;;;21.00;31.87;100412.50;105485;1259;69123;-61
2023/03/18 12:57:49;;;;;;;10.50;6.00;;;;;;;21.11;31.86;100410.52;105481;1257;69168;-61
2023/03/18 13:00:26;;;;;;;15.60;6.70;;;;;;;21.19;31.79;100415.61;105493;1259;73208;-64
2023/03/18 13:03:16;;;;;;;8.50;5.30;;;;;;;21.08;31.18;100412.17;105588;1253;82287;-60
2023/03/18 13:06:02;;;;;;;8.10;6.40;;;;;;;21.19;31.11;100410.27;105435;1254;72903;-62
2023/03/18 13:08:43;;;;;;;7.00;5.80;;;;;;;21.25;31.43;100410.46;105490;1259;69187;-60
2023/03/18 13:11:43;;;;;;;7.90;6.00;;;;;;;21.41;31.41;100413.09;105452;1254;69131;-61
2023/03/18 13:14:18;;;;;;;7.30;5.80;;;;;;;21.26;31.15;100414.69;105491;1253;74030;-60
2023/03/18 13:16:48;;;;;;;7.80;6.10;;;;;;;21.25;31.04;100413.48;105439;1259;83284;-61
2023/03/18 13:19:17;;;;;;;10.10;7.00;;;;;;;21.10;31.06;100410.06;105459;1254;73761;-60
2023/03/18 13:21:50;;;;;;;9.00;5.80;;;;;;;21.03;30.91;100411.66;105510;1254;69132;-61
2023/03/18 13:24:37;;;;;;;8.30;6.40;;;;;;;20.87;30.89;100413.31;105492;1258;69308;-61
2023/03/18 13:27:08;;;;;;;7.90;6.50;;;;;;;20.54;30.81;100411.86;105511;1259;73013;-60
2023/03/18 13:29:46;;;;;;;7.00;5.90;;;;;;;20.47;31.07;100414.36;105600;1254;82888;-61
2023/03/18 13:32:37;;;;;;;8.90;6.30;;;;;;;20.43;31.16;100416.83;105532;1256;73719;-60
2023/03/18 13:35:14;;;;;;;8.60;6.40;;;;;;;20.18;31.01;100423.14;105523;1254;69103;-60
2023/03/18 13:38:08;;;;;;;8.00;6.20;;;;;;;19.83;31.21;100421.36;105551;1254;69045;-64
2023/03/18 13:41:04;;;;;;;7.00;6.00;;;;;;;19.64;31.37;100420.47;105571;1254;74372;-60
2023/03/18 13:43:33;;;;;;;34.00;19.10;;;;;;;19.39;31.39;100417.17;105566;1256;82483;-64
2023/03/18 13:46:02;;;;;;;28.50;16.80;;;;;;;19.19;31.58;100414.80;105486;1259;72770;-60
2023/03/18 13:48:33;;;;;;;23.10;13.10;;;;;;;19.04;31.90;100413.01;105472;1254;69194;-60
2023/03/18 13:51:36;;;;;;;;;;;;;;;18.91;32.06;100412.17;105542;1254;69172;-60
2023/03/18 13:54:13;;;;;;;9.80;7.10;;;;;;;18.75;32.40;100413.44;104822;1266;74495;-61
2023/03/18 13:56:41;;;;;;;9.00;6.50;;;;;;;18.58;32.36;100412.34;105436;1256;82247;-59
2023/03/18 13:59:31;;;;;;;9.80;7.40;;;;;;;18.41;32.49;100413.34;105561;1254;72795;-64
2023/03/18 14:02:18;;;;;;;;;;;;;;;18.28;32.70;100416.36;105521;1255;69156;-62
2023/03/18 14:04:49;;;;;;;12.70;7.90;;;;;;;18.24;32.88;100416.10;105580;1256;69195;-60
2023/03/18 14:07:18;;;;;;;;;;;;;;;18.19;32.88;100416.61;105533;1256;73094;-60
2023/03/18 14:09:54;;;;;;;13.20;8.20;;;;;;;18.16;32.79;100414.54;105554;1254;81490;-60
2023/03/18 14:12:35;;;;;;;11.60;8.00;;;;;;;18.18;32.95;100413.36;105457;1254;73815;-60
2023/03/18 14:15:13;;;;;;;9.30;7.10;;;;;;;18.23;33.02;100407.91;105573;1256;69288;-63
2023/03/18 14:17:46;;;;;;;58.00;30.20;;;;;;;18.28;33.04;100400.64;105490;1256;69201;-60
2023/03/18 14:20:17;;;;;;;23.80;16.20;;;;;;;18.34;33.02;100400.25;105662;1256;74695;-60
2023/03/18 14:22:49;;;;;;;15.90;11.10;;;;;;;18.33;33.07;100397.33;105536;1256;82486;-60
2023/03/18 14:25:19;;;;;;;28.90;17.10;;;;;;;18.35;33.12;100400.36;105548;1254;72753;-60
2023/03/18 14:27:59;;;;;;;14.70;10.40;;;;;;;18.34;33.18;100406.42;105514;1254;69091;-61
2023/03/18 14:30:39;;;;;;;13.00;9.20;;;;;;;18.29;33.16;100402.15;105495;1254;69230;-59